Terminal Aerodrome Forecast
Issued by NWS Shreveport, LA

Home | Current Version | Previous Version | Text Only | Print | Product List | Glossary On
Versions: 1 2 3 4 5 6 7 8 9 10 11 12
000
FTUS44 KSHV 170541
TAFMLU
TAF
KMLU 170541Z 1706/1806 VRB04KT P6SM -RA BKN020
     FM170800 03007KT 4SM SHRA BR OVC015
      TEMPO 1708/1712 2SM SHRA BR OVC007
     FM171200 04006KT 6SM -RA BR OVC007
     FM171300 05005KT P6SM OVC007
     FM171900 VRB03KT P6SM BKN015=

USA.gov is the U.S. government's official web portal to all federal, state and local government web resources and services.